createdAt,value
2018-05-07T00:02:10.817Z,22.93
2018-05-07T00:04:37.496Z,22.91
2018-05-07T00:07:05.140Z,22.88
2018-05-07T00:09:31.778Z,22.93
2018-05-07T00:11:58.488Z,22.93
2018-05-07T00:14:25.057Z,22.94
2018-05-07T00:16:51.704Z,22.87
2018-05-07T00:19:18.389Z,22.89
2018-05-07T00:21:45.088Z,22.84
2018-05-07T00:24:11.725Z,22.84
2018-05-07T00:26:38.439Z,22.88
2018-05-07T00:29:05.050Z,22.89
2018-05-07T00:31:31.656Z,22.83
2018-05-07T00:33:58.299Z,22.84
2018-05-07T00:36:24.948Z,22.89
2018-05-07T00:38:51.618Z,22.85
2018-05-07T00:41:18.265Z,22.85
2018-05-07T00:43:44.934Z,22.83
2018-05-07T00:46:11.617Z,22.87
2018-05-07T00:48:38.277Z,22.84
2018-05-07T00:51:04.950Z,22.77
2018-05-07T00:53:31.647Z,22.87
2018-05-07T00:55:58.250Z,22.84
2018-05-07T00:58:24.924Z,22.80
2018-05-07T01:00:51.572Z,22.80
2018-05-07T01:03:18.176Z,22.80
2018-05-07T01:05:44.853Z,22.79
2018-05-07T01:08:11.494Z,22.83
2018-05-07T01:10:38.135Z,22.76
2018-05-07T01:13:04.847Z,22.80
2018-05-07T01:15:31.525Z,22.80
2018-05-07T01:17:58.162Z,22.76
2018-05-07T01:20:24.808Z,22.76
2018-05-07T01:22:51.487Z,22.74
2018-05-07T01:25:18.119Z,22.73
2018-05-07T01:27:44.838Z,22.75
2018-05-07T01:30:11.480Z,22.74
2018-05-07T01:32:48.431Z,22.74
2018-05-07T01:35:15.116Z,22.75
2018-05-07T01:37:41.713Z,22.72
2018-05-07T01:40:08.392Z,22.73
2018-05-07T01:42:35.025Z,22.78
2018-05-07T01:45:01.744Z,22.76
2018-05-07T01:47:28.347Z,22.75
2018-05-07T01:49:55.017Z,22.79
2018-05-07T01:52:21.627Z,22.74
2018-05-07T01:54:48.283Z,22.74
2018-05-07T01:57:14.926Z,22.71
2018-05-07T01:59:41.558Z,22.73
2018-05-07T02:02:08.271Z,22.68
2018-05-07T02:04:34.907Z,22.71
2018-05-07T02:07:01.541Z,22.70
2018-05-07T02:09:28.149Z,22.66
2018-05-07T02:11:54.855Z,22.67
2018-05-07T02:14:21.552Z,22.74
2018-05-07T02:16:48.149Z,22.71
2018-05-07T02:19:14.775Z,22.72
2018-05-07T02:21:41.484Z,22.67
2018-05-07T02:24:08.161Z,22.66
2018-05-07T02:26:34.805Z,22.66
2018-05-07T02:29:01.465Z,22.65
2018-05-07T02:31:28.114Z,22.62
2018-05-07T02:33:54.710Z,22.66
2018-05-07T02:36:21.377Z,22.63
2018-05-07T02:38:48.052Z,22.63
2018-05-07T02:41:14.686Z,22.69
2018-05-07T02:43:41.289Z,22.69
2018-05-07T02:46:07.950Z,22.67
2018-05-07T02:48:34.584Z,22.68
2018-05-07T02:51:01.195Z,22.58
2018-05-07T02:53:27.859Z,22.63
2018-05-07T02:55:54.510Z,22.67
2018-05-07T02:58:21.150Z,22.62
2018-05-07T03:00:47.784Z,22.62
2018-05-07T03:03:14.458Z,22.61
2018-05-07T03:05:41.102Z,22.58
2018-05-07T03:08:07.739Z,22.62
2018-05-07T03:10:34.373Z,22.62
2018-05-07T03:13:01.017Z,22.60
2018-05-07T03:15:27.623Z,22.61
2018-05-07T03:17:54.256Z,22.59
2018-05-07T03:20:20.917Z,22.63
2018-05-07T03:22:47.529Z,22.60
2018-05-07T03:25:14.164Z,22.56
2018-05-07T03:27:40.831Z,22.56
2018-05-07T03:30:07.431Z,22.59
2018-05-07T03:32:34.104Z,22.57
2018-05-07T03:35:00.747Z,22.52
2018-05-07T03:37:27.346Z,22.55
2018-05-07T03:39:53.983Z,22.60
2018-05-07T03:42:20.654Z,22.56
2018-05-07T03:44:47.286Z,22.54
2018-05-07T03:47:13.887Z,22.55
2018-05-07T03:49:40.525Z,22.58
2018-05-07T03:52:07.265Z,22.58
2018-05-07T03:54:33.900Z,22.56
2018-05-07T03:57:00.541Z,22.58
2018-05-07T03:59:27.181Z,22.54
2018-05-07T04:01:53.834Z,22.57
2018-05-07T04:04:20.439Z,22.54
2018-05-07T04:06:47.142Z,22.53
2018-05-07T04:09:13.803Z,22.57
2018-05-07T04:11:40.413Z,22.55
2018-05-07T04:14:07.084Z,22.53
2018-05-07T04:16:33.716Z,22.58
2018-05-07T04:19:00.351Z,22.56
2018-05-07T04:21:26.987Z,22.57
2018-05-07T04:23:53.611Z,22.55
2018-05-07T04:26:20.250Z,22.54
2018-05-07T04:28:46.884Z,22.54
2018-05-07T04:31:13.515Z,22.55
2018-05-07T04:33:40.243Z,22.54
2018-05-07T04:36:06.749Z,22.55
2018-05-07T04:38:33.394Z,22.56
2018-05-07T04:41:00.095Z,22.56
2018-05-07T04:43:26.733Z,22.50
2018-05-07T04:45:53.363Z,22.55
2018-05-07T04:48:20.018Z,22.55
2018-05-07T04:50:46.708Z,22.53
2018-05-07T04:53:13.333Z,22.53
2018-05-07T04:55:39.940Z,22.56
2018-05-07T04:58:06.616Z,22.55
2018-05-07T05:00:33.255Z,22.55
2018-05-07T05:02:59.876Z,22.51
2018-05-07T05:05:26.515Z,22.54
2018-05-07T05:07:53.112Z,22.58
2018-05-07T05:10:19.771Z,22.53
2018-05-07T05:12:46.415Z,22.54
2018-05-07T05:15:13.046Z,22.54
2018-05-07T05:17:39.680Z,22.49
2018-05-07T05:20:06.315Z,22.50
2018-05-07T05:22:32.956Z,22.48
2018-05-07T05:24:59.595Z,22.55
2018-05-07T05:27:26.230Z,22.55
2018-05-07T05:29:52.867Z,22.54
2018-05-07T05:32:19.513Z,22.55
2018-05-07T05:34:46.116Z,22.51
2018-05-07T05:37:12.770Z,22.49
2018-05-07T05:39:39.425Z,22.52
2018-05-07T05:42:06.023Z,22.49
2018-05-07T05:44:32.680Z,22.54
2018-05-07T05:46:59.315Z,22.54
2018-05-07T05:49:25.922Z,22.49
2018-05-07T05:51:52.587Z,22.50
2018-05-07T05:54:19.192Z,22.58
2018-05-07T05:56:45.841Z,22.55
2018-05-07T05:59:12.473Z,22.54
2018-05-07T06:01:39.107Z,22.52
2018-05-07T06:04:05.793Z,22.55
2018-05-07T06:06:32.422Z,22.56
2018-05-07T06:08:59.035Z,22.52
2018-05-07T06:11:25.653Z,22.56
2018-05-07T06:13:52.332Z,22.53
2018-05-07T06:16:18.923Z,22.52
2018-05-07T06:18:45.605Z,22.50
2018-05-07T06:21:12.236Z,22.52
2018-05-07T06:23:38.877Z,22.51
2018-05-07T06:26:05.469Z,22.56
2018-05-07T06:28:32.106Z,22.56
2018-05-07T06:30:58.741Z,22.56
2018-05-07T06:33:25.387Z,22.56
2018-05-07T06:35:52.014Z,22.56
2018-05-07T06:38:18.682Z,22.62
2018-05-07T06:40:45.321Z,22.61
2018-05-07T06:43:14.935Z,22.68
2018-05-07T06:45:41.673Z,22.66
2018-05-07T06:48:08.220Z,22.67
2018-05-07T06:50:34.832Z,22.62
2018-05-07T06:53:01.470Z,22.64
2018-05-07T06:55:28.134Z,22.65
2018-05-07T06:57:54.744Z,22.63
2018-05-07T07:00:21.416Z,22.64
2018-05-07T07:02:48.197Z,22.69
2018-05-07T07:05:14.694Z,22.70
2018-05-07T07:07:41.335Z,22.66
2018-05-07T07:10:07.937Z,22.71
2018-05-07T07:12:35.898Z,22.70
2018-05-07T07:15:01.218Z,22.69
2018-05-07T07:17:27.883Z,22.71
2018-05-07T07:19:54.482Z,22.74
2018-05-07T07:22:21.122Z,22.71
2018-05-07T07:24:47.834Z,22.69
2018-05-07T07:27:14.472Z,22.73
2018-05-07T07:29:41.065Z,22.74
2018-05-07T07:32:07.739Z,22.70
2018-05-07T07:34:34.345Z,22.75
2018-05-07T07:37:01.022Z,22.75
2018-05-07T07:39:27.699Z,22.77
2018-05-07T07:41:54.300Z,22.73
2018-05-07T07:44:20.893Z,22.74
2018-05-07T07:46:47.579Z,22.76
2018-05-07T07:49:14.217Z,22.79
2018-05-07T07:51:40.904Z,22.85
2018-05-07T07:54:07.538Z,22.85
2018-05-07T07:56:34.141Z,22.77
2018-05-07T07:59:00.785Z,22.83
2018-05-07T08:01:27.430Z,22.89
2018-05-07T08:03:54.102Z,22.91
2018-05-07T08:06:20.773Z,22.95
2018-05-07T08:08:47.459Z,22.97
2018-05-07T08:11:14.087Z,23.08
2018-05-07T08:13:40.687Z,23.03
2018-05-07T08:16:07.326Z,23.09
2018-05-07T08:18:33.991Z,23.13
2018-05-07T08:21:00.661Z,23.15
2018-05-07T08:23:27.256Z,23.17
2018-05-07T08:25:53.927Z,23.17
2018-05-07T08:28:20.555Z,23.18
2018-05-07T08:30:47.232Z,23.18
2018-05-07T08:33:13.842Z,23.16
2018-05-07T08:35:40.479Z,23.17
2018-05-07T08:38:07.116Z,23.09
2018-05-07T08:40:33.757Z,23.14
2018-05-07T08:43:00.391Z,23.18
2018-05-07T08:45:27.024Z,23.18
2018-05-07T08:47:53.668Z,23.23
2018-05-07T08:50:20.344Z,23.24
2018-05-07T08:52:46.994Z,23.27
2018-05-07T08:55:13.656Z,23.26
2018-05-07T08:57:40.256Z,23.26
2018-05-07T09:00:06.899Z,23.26
2018-05-07T09:02:33.536Z,23.13
2018-05-07T09:05:00.173Z,23.21
2018-05-07T09:07:26.846Z,23.23
2018-05-07T09:09:53.483Z,23.29
2018-05-07T09:12:20.120Z,23.32
2018-05-07T09:14:46.756Z,23.32
2018-05-07T09:17:13.359Z,23.35
2018-05-07T09:19:40.040Z,23.35
2018-05-07T09:22:06.672Z,23.29
2018-05-07T09:24:33.281Z,23.30
2018-05-07T09:26:59.949Z,23.32
2018-05-07T09:29:26.619Z,23.36
2018-05-07T09:31:53.219Z,23.44
2018-05-07T09:34:19.883Z,23.38
2018-05-07T09:36:46.530Z,23.43
2018-05-07T09:39:13.212Z,23.43
2018-05-07T09:41:39.831Z,23.39
2018-05-07T09:44:06.492Z,23.42
2018-05-07T09:46:33.102Z,23.40
2018-05-07T09:48:59.794Z,23.42
2018-05-07T09:51:26.371Z,23.46
2018-05-07T09:53:52.993Z,23.52
2018-05-07T09:56:19.691Z,23.51
2018-05-07T09:58:46.334Z,23.53
2018-05-07T10:01:12.963Z,23.47
2018-05-07T10:03:39.637Z,23.47
2018-05-07T10:06:06.256Z,23.51
2018-05-07T10:08:32.959Z,23.57
2018-05-07T10:10:59.562Z,23.55
2018-05-07T10:13:26.194Z,23.59
2018-05-07T10:15:52.916Z,23.49
2018-05-07T10:18:19.522Z,23.42
2018-05-07T10:20:46.174Z,23.28
2018-05-07T10:23:12.820Z,23.25
2018-05-07T10:25:39.486Z,23.26
2018-05-07T10:28:06.090Z,23.13
2018-05-07T10:30:32.749Z,23.11
2018-05-07T10:32:59.393Z,23.08
2018-05-07T10:35:26.044Z,23.08
2018-05-07T10:37:52.631Z,23.10
2018-05-07T10:40:19.348Z,23.06
2018-05-07T10:42:46.065Z,23.04
2018-05-07T10:45:12.648Z,23.01
2018-05-07T10:47:39.324Z,23.03
2018-05-07T10:50:05.936Z,22.94
2018-05-07T10:52:32.589Z,22.99
2018-05-07T10:54:59.257Z,22.94
2018-05-07T10:57:25.862Z,22.95
2018-05-07T10:59:52.503Z,22.92
2018-05-07T11:02:19.149Z,22.89
2018-05-07T11:04:45.855Z,22.87
2018-05-07T11:07:12.603Z,22.88
2018-05-07T11:09:39.346Z,22.87
2018-05-07T11:12:05.935Z,22.83
2018-05-07T11:14:32.588Z,22.78
2018-05-07T11:16:59.220Z,22.85
2018-05-07T11:19:25.858Z,22.75
2018-05-07T11:21:52.506Z,22.84
2018-05-07T11:24:19.173Z,22.78
2018-05-07T11:26:45.780Z,22.78
2018-05-07T11:29:12.453Z,22.76
2018-05-07T11:31:39.183Z,22.75
2018-05-07T11:34:05.821Z,22.77
2018-05-07T11:36:32.458Z,22.75
2018-05-07T11:38:59.108Z,22.73
2018-05-07T11:41:25.731Z,22.75
2018-05-07T11:43:52.369Z,22.75
2018-05-07T11:46:19.009Z,22.71
2018-05-07T11:48:45.685Z,22.61
2018-05-07T11:51:12.316Z,22.72
2018-05-07T11:53:39.029Z,22.64
2018-05-07T11:56:05.715Z,22.66
2018-05-07T11:58:32.366Z,22.67
2018-05-07T12:00:59.003Z,22.65
2018-05-07T12:03:25.641Z,22.62
2018-05-07T12:05:52.281Z,22.62
2018-05-07T12:08:18.915Z,22.61
2018-05-07T12:10:45.591Z,22.61
2018-05-07T12:13:12.250Z,22.52
2018-05-07T12:15:38.930Z,22.51
2018-05-07T12:18:05.528Z,22.57
2018-05-07T12:20:32.159Z,22.52
2018-05-07T12:22:58.835Z,22.54
2018-05-07T12:25:25.469Z,22.57
2018-05-07T12:27:52.109Z,22.46
2018-05-07T12:30:20.209Z,22.47
2018-05-07T12:32:45.352Z,22.69
2018-05-07T12:35:12.091Z,22.78
2018-05-07T12:37:38.716Z,22.88
2018-05-07T12:40:05.339Z,22.92
2018-05-07T12:42:32.164Z,22.97
2018-05-07T12:44:58.808Z,22.87
2018-05-07T12:47:28.359Z,22.96
2018-05-07T12:49:54.993Z,23.02
2018-05-07T12:52:21.751Z,23.05
2018-05-07T12:54:48.280Z,23.11
2018-05-07T12:57:14.953Z,23.10
2018-05-07T12:59:41.610Z,23.19
2018-05-07T13:02:08.210Z,23.25
2018-05-07T13:04:34.924Z,23.23
2018-05-07T13:07:01.522Z,23.28
2018-05-07T13:09:28.162Z,23.31
2018-05-07T13:11:54.869Z,23.37
2018-05-07T13:14:22.844Z,23.37
2018-05-07T13:16:48.332Z,23.44
2018-05-07T13:19:18.395Z,23.34
2018-05-07T13:21:45.000Z,23.38
2018-05-07T13:24:11.719Z,23.45
2018-05-07T13:26:38.314Z,23.52
2018-05-07T13:29:04.988Z,23.53
2018-05-07T13:31:31.597Z,23.51
2018-05-07T13:33:58.262Z,23.54
2018-05-07T13:36:24.861Z,23.49
2018-05-07T13:38:51.534Z,23.48
2018-05-07T13:41:18.167Z,23.54
2018-05-07T13:43:44.775Z,23.58
2018-05-07T13:46:11.455Z,23.64
2018-05-07T13:48:38.092Z,23.68
2018-05-07T13:51:04.739Z,23.66
2018-05-07T13:53:31.401Z,23.70
2018-05-07T13:55:58.000Z,23.61
2018-05-07T13:58:24.713Z,23.56
2018-05-07T14:00:51.355Z,23.63
2018-05-07T14:03:17.966Z,23.69
2018-05-07T14:05:44.685Z,23.69
2018-05-07T14:08:11.281Z,23.43
2018-05-07T14:10:37.917Z,23.26
2018-05-07T14:13:04.550Z,23.24
2018-05-07T14:15:31.223Z,23.15
2018-05-07T14:17:57.819Z,23.07
2018-05-07T14:20:24.529Z,23.03
2018-05-07T14:22:51.160Z,23.03
2018-05-07T14:25:17.853Z,22.97
2018-05-07T14:27:44.543Z,22.95
2018-05-07T14:30:11.140Z,22.93
2018-05-07T14:32:37.784Z,22.90
2018-05-07T14:35:04.451Z,22.81
2018-05-07T14:37:31.063Z,22.81
2018-05-07T14:39:57.701Z,22.79
2018-05-07T14:42:24.415Z,22.79
2018-05-07T14:44:51.058Z,22.77
2018-05-07T14:47:17.751Z,22.80
2018-05-07T14:49:44.390Z,22.73
2018-05-07T14:52:11.063Z,22.74
2018-05-07T14:54:37.724Z,22.74
2018-05-07T14:57:04.313Z,22.75
2018-05-07T14:59:30.951Z,22.73
2018-05-07T15:01:57.579Z,22.69
2018-05-07T15:04:24.253Z,22.68
2018-05-07T15:06:50.885Z,22.70
2018-05-07T15:09:17.753Z,22.60
2018-05-07T15:11:44.355Z,22.64
2018-05-07T15:14:11.026Z,22.68
2018-05-07T15:16:37.633Z,22.62
2018-05-07T15:19:04.347Z,22.57
2018-05-07T15:21:31.045Z,22.60
2018-05-07T15:23:57.721Z,22.56
2018-05-07T15:26:24.395Z,22.53
2018-05-07T15:28:51.031Z,22.57
2018-05-07T15:31:17.677Z,22.52
2018-05-07T15:33:44.324Z,22.51
2018-05-07T15:36:11.041Z,22.52
2018-05-07T15:38:37.715Z,22.47
2018-05-07T15:41:04.353Z,22.41
2018-05-07T15:43:30.987Z,22.43
2018-05-07T15:45:57.613Z,22.38
2018-05-07T15:48:24.258Z,22.34
2018-05-07T15:50:50.888Z,22.33
2018-05-07T15:53:17.549Z,22.32
2018-05-07T15:55:44.214Z,22.46
2018-05-07T15:58:10.807Z,22.57
2018-05-07T16:00:37.475Z,22.65
2018-05-07T16:03:04.175Z,22.66
2018-05-07T16:05:30.798Z,22.78
2018-05-07T16:07:57.434Z,22.81
2018-05-07T16:10:24.131Z,22.88
2018-05-07T16:12:50.826Z,22.97
2018-05-07T16:15:17.527Z,23.02
2018-05-07T16:17:44.097Z,23.11
2018-05-07T16:20:10.773Z,23.15
2018-05-07T16:22:37.441Z,23.14
2018-05-07T16:25:04.098Z,23.16
2018-05-07T16:27:30.772Z,23.13
2018-05-07T16:29:57.411Z,23.03
2018-05-07T16:32:24.083Z,23.21
2018-05-07T16:34:53.609Z,23.26
2018-05-07T16:37:20.334Z,23.31
2018-05-07T16:39:46.961Z,23.31
2018-05-07T16:42:13.611Z,23.32
2018-05-07T16:44:40.292Z,23.35
2018-05-07T16:47:06.949Z,23.38
2018-05-07T16:49:33.610Z,23.35
2018-05-07T16:52:00.245Z,23.35
2018-05-07T16:54:26.931Z,23.19
2018-05-07T16:56:53.542Z,23.19
2018-05-07T16:59:20.202Z,23.27
2018-05-07T17:01:46.844Z,23.26
2018-05-07T17:04:13.516Z,23.33
2018-05-07T17:06:40.110Z,23.28
2018-05-07T17:09:06.790Z,23.31
2018-05-07T17:11:33.458Z,23.36
2018-05-07T17:14:00.088Z,23.31
2018-05-07T17:16:26.731Z,23.32
2018-05-07T17:18:53.371Z,23.36
2018-05-07T17:21:20.002Z,23.38
2018-05-07T17:23:46.671Z,23.25
2018-05-07T17:26:13.283Z,23.32
2018-05-07T17:28:39.932Z,23.34
2018-05-07T17:31:06.639Z,23.30
2018-05-07T17:33:33.350Z,23.26
2018-05-07T17:35:59.926Z,23.27
2018-05-07T17:38:26.601Z,23.26
2018-05-07T17:40:53.334Z,23.28
2018-05-07T17:43:19.935Z,23.29
2018-05-07T17:45:46.605Z,23.31
2018-05-07T17:48:13.324Z,23.30
2018-05-07T17:50:39.879Z,23.28
2018-05-07T17:53:06.540Z,23.28
2018-05-07T17:55:33.186Z,23.25
2018-05-07T17:57:59.823Z,23.23
2018-05-07T18:00:26.458Z,23.29
2018-05-07T18:02:53.126Z,23.22
2018-05-07T18:05:19.766Z,23.29
2018-05-07T18:07:46.427Z,23.09
2018-05-07T18:10:13.117Z,23.16
2018-05-07T18:12:39.747Z,23.13
2018-05-07T18:15:06.356Z,23.14
2018-05-07T18:17:32.987Z,23.25
2018-05-07T18:19:59.692Z,23.18
2018-05-07T18:22:28.945Z,23.20
2018-05-07T18:24:55.541Z,23.17
2018-05-07T18:27:22.207Z,23.21
2018-05-07T18:29:48.849Z,23.27
2018-05-07T18:32:15.521Z,23.19
2018-05-07T18:34:42.194Z,23.25
2018-05-07T18:37:08.831Z,23.20
2018-05-07T18:39:35.474Z,23.23
2018-05-07T18:42:02.134Z,23.21
2018-05-07T18:44:28.779Z,23.22
2018-05-07T18:46:55.450Z,23.17
2018-05-07T18:49:22.133Z,23.21
2018-05-07T18:51:48.858Z,23.19
2018-05-07T18:54:15.527Z,23.15
2018-05-07T18:56:42.138Z,23.17
2018-05-07T18:59:08.845Z,23.13
2018-05-07T19:01:35.468Z,23.15
2018-05-07T19:04:02.147Z,23.13
2018-05-07T19:06:28.763Z,23.17
2018-05-07T19:08:55.427Z,23.11
2018-05-07T19:11:22.032Z,23.14
2018-05-07T19:13:48.731Z,23.13
2018-05-07T19:16:15.338Z,23.12
2018-05-07T19:18:42.107Z,23.10
2018-05-07T19:21:08.773Z,23.13
2018-05-07T19:23:35.417Z,23.10
2018-05-07T19:26:02.056Z,23.08
2018-05-07T19:28:28.723Z,23.12
2018-05-07T19:30:55.497Z,23.09
2018-05-07T19:33:22.131Z,23.13
2018-05-07T19:35:48.813Z,23.09
2018-05-07T19:38:15.440Z,23.08
2018-05-07T19:40:42.082Z,23.05
2018-05-07T19:43:08.709Z,23.03
2018-05-07T19:45:35.424Z,23.03
2018-05-07T19:48:02.058Z,23.03
2018-05-07T19:50:28.745Z,23.06
2018-05-07T19:52:55.342Z,23.02
2018-05-07T19:55:22.046Z,23.04
2018-05-07T19:57:48.683Z,23.01
2018-05-07T20:00:15.358Z,23.02
2018-05-07T20:02:42.002Z,22.99
2018-05-07T20:05:08.668Z,22.99
2018-05-07T20:07:35.358Z,22.98
2018-05-07T20:10:02.011Z,22.98
2018-05-07T20:12:28.679Z,22.97
2018-05-07T20:14:55.316Z,22.98
2018-05-07T20:17:22.027Z,22.91
2018-05-07T20:19:48.678Z,22.93
2018-05-07T20:22:15.345Z,22.99
2018-05-07T20:24:41.991Z,22.89
2018-05-07T20:27:08.656Z,22.90
2018-05-07T20:29:35.278Z,22.94
2018-05-07T20:32:01.920Z,22.89
2018-05-07T20:34:28.548Z,22.87
2018-05-07T20:36:55.226Z,22.90
2018-05-07T20:39:21.888Z,22.90
2018-05-07T20:41:48.534Z,22.88
2018-05-07T20:44:15.217Z,22.88
2018-05-07T20:46:43.075Z,22.90
2018-05-07T20:49:08.531Z,22.87
2018-05-07T20:51:35.226Z,22.87
2018-05-07T20:54:01.821Z,22.84
2018-05-07T20:56:28.454Z,22.81
2018-05-07T20:58:55.099Z,22.81
2018-05-07T21:01:21.812Z,22.83
2018-05-07T21:03:48.450Z,22.85
2018-05-07T21:06:15.107Z,22.79
2018-05-07T21:08:41.752Z,22.82
2018-05-07T21:11:08.385Z,22.78
2018-05-07T21:13:35.106Z,22.84
2018-05-07T21:16:01.702Z,22.81
2018-05-07T21:18:28.372Z,22.78
2018-05-07T21:20:55.026Z,22.78
2018-05-07T21:23:21.705Z,22.76
2018-05-07T21:25:48.377Z,22.75
2018-05-07T21:28:15.013Z,22.78
2018-05-07T21:30:41.675Z,22.76
2018-05-07T21:33:08.322Z,22.77
2018-05-07T21:35:34.997Z,22.73
2018-05-07T21:38:01.672Z,22.73
2018-05-07T21:40:28.346Z,22.73
2018-05-07T21:42:56.361Z,22.70
2018-05-07T21:45:21.660Z,22.71
2018-05-07T21:47:48.293Z,22.70
2018-05-07T21:50:15.004Z,22.70
2018-05-07T21:52:41.643Z,22.68
2018-05-07T21:55:08.273Z,22.69
2018-05-07T21:57:34.953Z,22.69
2018-05-07T22:00:01.672Z,22.68
2018-05-07T22:02:28.306Z,22.71
2018-05-07T22:04:54.943Z,22.68
2018-05-07T22:07:21.626Z,22.67
2018-05-07T22:09:48.304Z,22.65
2018-05-07T22:12:15.061Z,22.62
2018-05-07T22:14:41.610Z,22.63
2018-05-07T22:17:08.274Z,22.66
2018-05-07T22:19:34.920Z,22.64
2018-05-07T22:22:01.570Z,22.67
2018-05-07T22:24:28.198Z,22.65
2018-05-07T22:26:54.857Z,22.67
2018-05-07T22:29:21.620Z,22.62
2018-05-07T22:31:48.238Z,22.63
2018-05-07T22:34:14.875Z,22.60
2018-05-07T22:36:41.507Z,22.60
2018-05-07T22:39:08.151Z,22.64
2018-05-07T22:41:34.773Z,22.65
2018-05-07T22:44:01.436Z,22.61
2018-05-07T22:46:28.502Z,22.58
2018-05-07T22:48:55.209Z,22.57
2018-05-07T22:51:21.781Z,22.58
2018-05-07T22:53:48.459Z,22.56
2018-05-07T22:56:15.098Z,22.57
2018-05-07T22:58:41.691Z,22.58
2018-05-07T23:01:08.337Z,22.60
2018-05-07T23:03:34.977Z,22.54
2018-05-07T23:06:01.613Z,22.55
2018-05-07T23:08:28.276Z,22.53
2018-05-07T23:10:54.900Z,22.53
2018-05-07T23:13:21.552Z,22.53
2018-05-07T23:15:48.201Z,22.48
2018-05-07T23:18:14.827Z,22.51
2018-05-07T23:20:41.435Z,22.51
2018-05-07T23:23:08.104Z,22.46
2018-05-07T23:25:34.742Z,22.44
2018-05-07T23:28:01.339Z,22.41
2018-05-07T23:30:27.983Z,22.52
2018-05-07T23:32:54.615Z,22.46
2018-05-07T23:35:21.256Z,22.46
2018-05-07T23:37:47.885Z,22.45
2018-05-07T23:40:14.554Z,22.48
2018-05-07T23:42:41.194Z,22.48
2018-05-07T23:45:07.839Z,22.53
2018-05-07T23:47:34.432Z,22.48
2018-05-07T23:50:01.071Z,22.48
2018-05-07T23:52:27.748Z,22.50
2018-05-07T23:54:54.386Z,22.45
2018-05-07T23:57:20.990Z,22.45
2018-05-07T23:59:47.655Z,22.40
